Fogo, Canada
Current Conditions -  °F | °C
As of 7:12 AM on Friday 21 Nov 2014 (Local Time) from CYQX Reporting Station
Light Rain Light Rain  
Wind Chill: 27°   Ceiling: 1400
Heat Index: 39°   Visibility: 4mi
Dew Point: 37°   Wind: 33mph
Humidity: 93%   Direction: 160°SSE
Pressure: 29.62"   Gusts: 40mph
Location:  49.7°N, 54.28°W
Report Text: CYQX 211012Z 16029G35KT 4SM -RA BR FEW009 BKN014 OVC024 04/03 A2962 RMK SF1SC5SC2 SLP036
Loading
Personal Weather Stations






























Interactive Weather Map New forecast layout! Learn more

10-Day Weather Forecast

Advertisements
Track Severe Weather on mobile